createdAt,value
2023-01-10T00:01:47.284Z,10.83
2023-01-10T00:04:15.561Z,10.85
2023-01-10T00:06:43.606Z,10.96
2023-01-10T00:09:11.720Z,10.99
2023-01-10T00:11:57.742Z,11.07
2023-01-10T00:14:28.749Z,11.08
2023-01-10T00:16:58.565Z,11.16
2023-01-10T00:19:26.817Z,11.22
2023-01-10T00:21:55.910Z,11.19
2023-01-10T00:24:24.224Z,11.20
2023-01-10T00:26:52.803Z,11.25
2023-01-10T00:29:24.268Z,11.30
2023-01-10T00:31:52.865Z,11.33
2023-01-10T00:34:22.362Z,11.30
2023-01-10T00:36:53.521Z,11.37
2023-01-10T00:39:21.802Z,11.33
2023-01-10T00:42:07.419Z,11.40
2023-01-10T00:44:35.622Z,11.37
2023-01-10T00:47:03.573Z,11.31
2023-01-10T00:49:32.802Z,11.36
2023-01-10T00:52:00.988Z,11.32
2023-01-10T00:54:29.158Z,11.31
2023-01-10T00:56:57.441Z,11.23
2023-01-10T00:59:25.764Z,11.18
2023-01-10T01:01:54.121Z,11.12
2023-01-10T01:04:23.224Z,11.10
2023-01-10T01:06:52.849Z,11.02
2023-01-10T01:09:20.820Z,11.03
2023-01-10T01:11:49.457Z,10.94
2023-01-10T01:14:17.707Z,10.90
2023-01-10T01:16:45.744Z,10.99
2023-01-10T01:19:13.705Z,11.05
2023-01-10T01:21:42.115Z,11.09
2023-01-10T01:24:11.812Z,11.11
2023-01-10T01:26:39.921Z,11.04
2023-01-10T01:29:08.271Z,11.05
2023-01-10T01:31:36.288Z,11.04
2023-01-10T01:34:04.560Z,11.00
2023-01-10T01:36:32.851Z,10.99
2023-01-10T01:39:01.006Z,10.93
2023-01-10T01:41:47.931Z,10.91
2023-01-10T01:44:18.382Z,10.91
2023-01-10T01:46:50.323Z,10.91
2023-01-10T01:49:23.808Z,10.91
2023-01-10T01:51:57.952Z,10.93
2023-01-10T01:54:28.001Z,10.91
2023-01-10T01:57:02.146Z,10.86
2023-01-10T01:59:34.615Z,10.82
2023-01-10T02:02:06.329Z,10.79
2023-01-10T02:04:42.663Z,10.74
2023-01-10T02:07:12.292Z,10.76
2023-01-10T02:09:46.382Z,10.76
2023-01-10T02:12:16.734Z,10.67
2023-01-10T02:14:46.237Z,10.75
2023-01-10T02:17:14.827Z,10.75
2023-01-10T02:19:52.538Z,10.72
2023-01-10T02:23:04.409Z,10.71
2023-01-10T02:26:15.348Z,10.85
2023-01-10T02:29:35.183Z,10.87
2023-01-10T02:32:17.168Z,10.83
2023-01-10T02:35:00.828Z,10.76
2023-01-10T02:37:39.837Z,10.76
2023-01-10T02:40:15.181Z,10.68
2023-01-10T02:42:48.210Z,10.68
2023-01-10T02:45:20.275Z,10.61
2023-01-10T02:47:49.679Z,10.59
2023-01-10T02:50:31.762Z,10.52
2023-01-10T02:53:04.756Z,10.50
2023-01-10T02:55:44.076Z,10.41
2023-01-10T02:58:28.839Z,10.32
2023-01-10T03:01:04.486Z,10.35
2023-01-10T03:03:42.653Z,10.35
2023-01-10T03:06:24.011Z,10.35
2023-01-10T03:08:58.770Z,10.35
2023-01-10T03:11:43.160Z,10.31
2023-01-10T03:14:17.255Z,10.35
2023-01-10T03:16:50.247Z,10.29
2023-01-10T03:19:22.573Z,10.24
2023-01-10T03:21:55.111Z,10.20
2023-01-10T03:24:28.838Z,10.19
2023-01-10T03:26:59.762Z,10.20
2023-01-10T03:29:32.450Z,10.23
2023-01-10T03:32:05.820Z,10.26
2023-01-10T03:34:36.100Z,10.29
2023-01-10T03:37:13.647Z,10.34
2023-01-10T03:39:52.411Z,10.38
2023-01-10T03:42:25.884Z,10.43
2023-01-10T03:44:59.613Z,10.46
2023-01-10T03:47:35.224Z,10.49
2023-01-10T03:50:08.326Z,10.53
2023-01-10T03:52:37.850Z,10.55
2023-01-10T03:55:08.064Z,10.58
2023-01-10T03:57:36.383Z,10.63
2023-01-10T04:00:06.159Z,10.69
2023-01-10T04:02:34.524Z,10.68
2023-01-10T04:05:02.551Z,10.70
2023-01-10T04:07:32.204Z,10.75
2023-01-10T04:10:00.434Z,10.75
2023-01-10T04:12:28.444Z,10.83
2023-01-10T04:14:56.519Z,10.86
2023-01-10T04:17:24.842Z,10.88
2023-01-10T04:19:52.811Z,10.89
2023-01-10T04:22:20.903Z,10.93
2023-01-10T04:24:52.017Z,11.01
2023-01-10T04:27:20.421Z,10.98
2023-01-10T04:29:48.828Z,10.97
2023-01-10T04:32:16.995Z,10.98
2023-01-10T04:34:45.117Z,11.13
2023-01-10T04:37:13.378Z,11.15
2023-01-10T04:39:41.407Z,11.23
2023-01-10T04:42:10.660Z,11.13
2023-01-10T04:44:39.045Z,11.13
2023-01-10T04:47:07.179Z,11.26
2023-01-10T04:49:35.206Z,11.31
2023-01-10T04:52:03.476Z,11.29
2023-01-10T04:54:31.444Z,11.20
2023-01-10T04:56:59.479Z,11.40
2023-01-10T04:59:29.408Z,11.34
2023-01-10T05:01:58.195Z,11.46
2023-01-10T05:04:26.592Z,11.42
2023-01-10T05:06:54.796Z,11.51
2023-01-10T05:09:22.965Z,11.48
2023-01-10T05:11:51.049Z,11.59
2023-01-10T05:14:19.297Z,11.64
2023-01-10T05:16:48.733Z,11.65
2023-01-10T05:19:16.904Z,11.66
2023-01-10T05:21:45.123Z,11.64
2023-01-10T05:24:13.300Z,11.52
2023-01-10T05:26:41.271Z,11.66
2023-01-10T05:29:11.253Z,11.51
2023-01-10T05:31:39.389Z,11.66
2023-01-10T05:34:11.921Z,11.68
2023-01-10T05:36:40.496Z,11.71
2023-01-10T05:39:08.559Z,11.72
2023-01-10T05:41:36.544Z,11.69
2023-01-10T05:44:04.831Z,11.67
2023-01-10T05:46:32.920Z,11.52
2023-01-10T05:49:01.098Z,11.65
2023-01-10T05:51:30.913Z,11.64
2023-01-10T05:53:59.260Z,11.65
2023-01-10T05:56:27.557Z,11.60
2023-01-10T05:59:05.248Z,11.63
2023-01-10T06:01:35.937Z,11.66
2023-01-10T06:04:04.333Z,11.70
2023-01-10T06:06:34.496Z,11.78
2023-01-10T06:09:02.693Z,11.65
2023-01-10T06:11:31.161Z,11.91
2023-01-10T06:13:59.474Z,12.02
2023-01-10T06:16:27.521Z,12.02
2023-01-10T06:18:55.840Z,11.93
2023-01-10T06:21:24.093Z,12.04
2023-01-10T06:23:53.713Z,12.07
2023-01-10T06:26:21.991Z,12.03
2023-01-10T06:28:49.936Z,12.01
2023-01-10T06:31:17.992Z,12.03
2023-01-10T06:33:46.229Z,12.00
2023-01-10T06:36:14.210Z,11.91
2023-01-10T06:38:42.270Z,11.99
2023-01-10T06:41:15.011Z,11.89
2023-01-10T06:43:45.296Z,11.89
2023-01-10T06:46:14.204Z,11.98
2023-01-10T06:48:43.915Z,12.01
2023-01-10T06:51:12.283Z,12.03
2023-01-10T06:53:40.825Z,12.05
2023-01-10T06:56:09.950Z,12.03
2023-01-10T06:58:40.316Z,12.08
2023-01-10T07:01:14.049Z,12.14
2023-01-10T07:03:42.437Z,12.08
2023-01-10T07:06:11.202Z,12.06
2023-01-10T07:08:39.870Z,12.05
2023-01-10T07:11:10.323Z,12.07
2023-01-10T07:13:40.818Z,12.08
2023-01-10T07:16:11.958Z,12.14
2023-01-10T07:18:42.034Z,12.15
2023-01-10T07:21:11.419Z,12.16
2023-01-10T07:23:40.230Z,12.15
2023-01-10T07:26:10.443Z,12.18
2023-01-10T07:28:40.138Z,12.20
2023-01-10T07:31:08.447Z,12.23
2023-01-10T07:33:36.609Z,12.23
2023-01-10T07:36:05.528Z,12.23
2023-01-10T07:38:33.877Z,12.24
2023-01-10T07:41:03.280Z,12.25
2023-01-10T07:43:31.762Z,12.22
2023-01-10T07:46:02.385Z,12.23
2023-01-10T07:48:30.783Z,12.23
2023-01-10T07:51:00.283Z,12.24
2023-01-10T07:53:29.792Z,12.29
2023-01-10T07:56:00.849Z,12.34
2023-01-10T07:58:30.044Z,12.38
2023-01-10T08:00:59.017Z,12.40
2023-01-10T08:03:29.953Z,12.43
2023-01-10T08:06:02.332Z,12.45
2023-01-10T08:08:31.489Z,12.42
2023-01-10T08:11:02.505Z,12.44
2023-01-10T08:13:31.133Z,12.47
2023-01-10T08:15:59.742Z,12.47
2023-01-10T08:18:29.043Z,12.42
2023-01-10T08:20:58.095Z,12.44
2023-01-10T08:23:26.067Z,12.56
2023-01-10T08:25:54.344Z,12.60
2023-01-10T08:28:22.724Z,12.63
2023-01-10T08:30:55.531Z,12.58
2023-01-10T08:33:24.939Z,12.63
2023-01-10T08:35:54.264Z,12.54
2023-01-10T08:38:22.215Z,12.66
2023-01-10T08:40:50.717Z,12.73
2023-01-10T08:43:18.733Z,12.63
2023-01-10T08:45:47.448Z,12.79
2023-01-10T08:48:15.760Z,12.82
2023-01-10T08:50:43.843Z,12.79
2023-01-10T08:53:13.763Z,12.84
2023-01-10T08:55:42.010Z,12.83
2023-01-10T08:58:11.116Z,12.76
2023-01-10T09:00:39.186Z,12.91
2023-01-10T09:03:07.888Z,13.03
2023-01-10T09:05:35.900Z,13.04
2023-01-10T09:08:05.421Z,12.96
2023-01-10T09:10:35.135Z,13.03
2023-01-10T09:13:04.924Z,13.17
2023-01-10T09:15:35.655Z,13.10
2023-01-10T09:18:05.728Z,13.11
2023-01-10T09:20:35.826Z,13.24
2023-01-10T09:23:06.721Z,13.20
2023-01-10T09:25:36.563Z,13.36
2023-01-10T09:28:06.250Z,13.35
2023-01-10T09:30:34.734Z,13.48
2023-01-10T09:33:03.330Z,13.54
2023-01-10T09:35:32.535Z,13.53
2023-01-10T09:38:02.364Z,13.65
2023-01-10T09:40:47.876Z,13.56
2023-01-10T09:43:23.777Z,13.79
2023-01-10T09:46:00.680Z,13.76
2023-01-10T09:48:42.469Z,13.68
2023-01-10T09:51:23.758Z,13.88
2023-01-10T09:54:10.077Z,13.88
2023-01-10T09:56:40.970Z,13.69
2023-01-10T09:59:15.278Z,13.76
2023-01-10T10:01:43.629Z,13.81
2023-01-10T10:04:23.347Z,13.97
2023-01-10T10:06:51.892Z,13.80
2023-01-10T10:09:27.226Z,13.72
2023-01-10T10:12:09.655Z,13.57
2023-01-10T10:14:50.203Z,13.67
2023-01-10T10:17:42.152Z,13.72
2023-01-10T10:20:36.200Z,13.68
2023-01-10T10:23:20.122Z,13.80
2023-01-10T10:26:00.319Z,13.51
2023-01-10T10:28:53.940Z,13.80
2023-01-10T10:31:36.275Z,13.85
2023-01-10T10:34:13.381Z,13.84
2023-01-10T10:36:47.310Z,13.91
2023-01-10T10:39:19.520Z,13.93
2023-01-10T10:41:52.511Z,14.06
2023-01-10T10:44:33.799Z,14.08
2023-01-10T10:47:02.361Z,14.00
2023-01-10T10:49:40.865Z,14.18
2023-01-10T10:52:18.387Z,14.25
2023-01-10T10:54:47.879Z,14.30
2023-01-10T10:57:16.936Z,14.28
2023-01-10T10:59:49.077Z,14.29
2023-01-10T11:02:23.804Z,14.34
2023-01-10T11:04:54.592Z,14.44
2023-01-10T11:07:23.520Z,14.56
2023-01-10T11:09:56.506Z,14.65
2023-01-10T11:12:30.714Z,14.71
2023-01-10T11:15:01.660Z,14.55
2023-01-10T11:17:33.765Z,14.63
2023-01-10T11:20:03.145Z,14.54
2023-01-10T11:22:35.005Z,14.59
2023-01-10T11:25:04.132Z,14.52
2023-01-10T11:27:36.267Z,14.54
2023-01-10T11:30:09.715Z,14.60
2023-01-10T11:32:41.797Z,14.39
2023-01-10T11:35:20.475Z,14.60
2023-01-10T11:38:01.084Z,14.80
2023-01-10T11:40:30.159Z,14.73
2023-01-10T11:42:59.936Z,14.82
2023-01-10T11:45:32.512Z,14.95
2023-01-10T11:48:08.978Z,14.72
2023-01-10T11:50:40.501Z,14.78
2023-01-10T11:53:31.983Z,14.72
2023-01-10T11:56:00.133Z,14.68
2023-01-10T11:58:32.901Z,14.78
2023-01-10T12:01:02.856Z,14.74
2023-01-10T12:03:37.058Z,14.57
2023-01-10T12:06:08.612Z,14.48
2023-01-10T12:08:38.865Z,14.33
2023-01-10T12:11:08.246Z,14.27
2023-01-10T12:13:48.511Z,14.26
2023-01-10T12:16:20.150Z,14.26
2023-01-10T12:18:48.833Z,14.22
2023-01-10T12:21:22.868Z,14.25
2023-01-10T12:23:52.637Z,14.15
2023-01-10T12:26:21.145Z,14.26
2023-01-10T12:28:53.225Z,14.13
2023-01-10T12:31:24.086Z,14.20
2023-01-10T12:33:57.045Z,14.18
2023-01-10T12:36:35.682Z,14.00
2023-01-10T12:39:16.248Z,13.98
2023-01-10T12:42:09.619Z,14.12
2023-01-10T12:44:41.405Z,13.89
2023-01-10T12:47:20.361Z,13.92
2023-01-10T12:49:53.706Z,14.00
2023-01-10T12:52:32.936Z,13.91
2023-01-10T12:55:03.170Z,14.07
2023-01-10T12:57:34.784Z,14.13
2023-01-10T13:00:06.102Z,13.93
2023-01-10T13:02:41.006Z,13.93
2023-01-10T13:05:18.762Z,14.06
2023-01-10T13:07:48.787Z,14.08
2023-01-10T13:10:21.494Z,14.10
2023-01-10T13:12:57.859Z,14.16
2023-01-10T13:15:31.347Z,14.21
2023-01-10T13:18:05.364Z,14.26
2023-01-10T13:20:42.305Z,14.24
2023-01-10T13:23:30.191Z,14.16
2023-01-10T13:26:02.762Z,13.76
2023-01-10T13:28:33.780Z,14.18
2023-01-10T13:31:04.279Z,13.99
2023-01-10T13:33:40.172Z,14.18
2023-01-10T13:36:12.155Z,14.10
2023-01-10T13:38:49.894Z,14.09
2023-01-10T13:41:36.512Z,14.14
2023-01-10T13:44:08.910Z,14.01
2023-01-10T13:46:43.215Z,14.07
2023-01-10T13:49:39.473Z,13.80
2023-01-10T13:52:31.055Z,14.11
2023-01-10T13:55:03.556Z,14.06
2023-01-10T13:57:51.378Z,14.10
2023-01-10T14:00:45.732Z,13.82
2023-01-10T14:03:54.067Z,13.93
2023-01-10T14:06:41.128Z,14.12
2023-01-10T14:09:37.821Z,13.99
2023-01-10T14:12:09.910Z,14.12
2023-01-10T14:14:41.799Z,13.78
2023-01-10T14:17:15.316Z,13.67
2023-01-10T14:19:46.447Z,13.69
2023-01-10T14:22:31.016Z,13.78
2023-01-10T14:25:00.960Z,13.43
2023-01-10T14:27:37.394Z,13.54
2023-01-10T14:30:08.037Z,13.53
2023-01-10T14:32:39.307Z,13.69
2023-01-10T14:35:10.925Z,13.65
2023-01-10T14:37:43.885Z,13.70
2023-01-10T14:40:20.087Z,13.73
2023-01-10T14:42:49.439Z,13.76
2023-01-10T14:45:29.335Z,13.91
2023-01-10T14:47:57.321Z,13.83
2023-01-10T14:50:28.774Z,13.97
2023-01-10T14:52:58.261Z,13.82
2023-01-10T14:55:28.026Z,13.91
2023-01-10T14:57:57.970Z,13.89
2023-01-10T15:00:28.568Z,13.82
2023-01-10T15:02:58.972Z,13.63
2023-01-10T15:05:29.223Z,13.60
2023-01-10T15:08:16.836Z,13.36
2023-01-10T15:10:47.242Z,13.33
2023-01-10T15:13:17.197Z,13.31
2023-01-10T15:15:49.238Z,13.36
2023-01-10T15:18:30.869Z,13.30
2023-01-10T15:20:59.419Z,13.21
2023-01-10T15:23:35.264Z,13.33
2023-01-10T15:26:06.809Z,13.24
2023-01-10T15:28:36.028Z,13.23
2023-01-10T15:31:05.739Z,13.30
2023-01-10T15:33:36.271Z,13.25
2023-01-10T15:36:06.717Z,13.30
2023-01-10T15:38:43.498Z,13.23
2023-01-10T15:41:19.792Z,13.22
2023-01-10T15:43:50.110Z,13.26
2023-01-10T15:46:20.815Z,13.22
2023-01-10T15:48:56.810Z,13.25
2023-01-10T15:51:29.076Z,13.22
2023-01-10T15:54:04.501Z,13.21
2023-01-10T15:56:37.688Z,13.20
2023-01-10T15:59:24.250Z,13.25
2023-01-10T16:01:59.804Z,13.22
2023-01-10T16:04:28.708Z,13.14
2023-01-10T16:07:07.712Z,13.20
2023-01-10T16:09:39.568Z,13.14
2023-01-10T16:12:30.714Z,13.17
2023-01-10T16:14:58.891Z,13.19
2023-01-10T16:17:26.964Z,13.18
2023-01-10T16:19:55.467Z,13.16
2023-01-10T16:22:24.364Z,13.18
2023-01-10T16:24:53.693Z,13.16
2023-01-10T16:27:21.716Z,13.12
2023-01-10T16:29:49.902Z,13.07
2023-01-10T16:32:20.327Z,13.04
2023-01-10T16:34:49.050Z,13.02
2023-01-10T16:37:17.404Z,12.97
2023-01-10T16:39:48.868Z,13.00
2023-01-10T16:42:36.073Z,12.91
2023-01-10T16:45:05.075Z,12.93
2023-01-10T16:47:33.248Z,12.90
2023-01-10T16:50:01.454Z,12.91
2023-01-10T16:52:30.271Z,12.90
2023-01-10T16:54:58.456Z,12.89
2023-01-10T16:57:27.827Z,12.84
2023-01-10T16:59:56.247Z,12.83
2023-01-10T17:02:24.912Z,12.85
2023-01-10T17:04:52.970Z,12.76
2023-01-10T17:07:21.344Z,12.74
2023-01-10T17:09:49.272Z,12.82
2023-01-10T17:12:20.299Z,12.76
2023-01-10T17:14:50.054Z,12.71
2023-01-10T17:17:18.126Z,12.72
2023-01-10T17:19:47.769Z,12.74
2023-01-10T17:22:16.492Z,12.73
2023-01-10T17:24:44.498Z,12.73
2023-01-10T17:27:12.731Z,12.74
2023-01-10T17:29:41.017Z,12.63
2023-01-10T17:32:11.484Z,12.69
2023-01-10T17:34:39.629Z,12.69
2023-01-10T17:37:07.942Z,12.72
2023-01-10T17:39:37.770Z,12.64
2023-01-10T17:42:06.852Z,12.69
2023-01-10T17:44:35.139Z,12.67
2023-01-10T17:47:03.368Z,12.60
2023-01-10T17:49:32.664Z,12.52
2023-01-10T17:52:00.949Z,12.48
2023-01-10T17:54:29.031Z,12.45
2023-01-10T17:56:57.110Z,12.42
2023-01-10T17:59:25.312Z,12.29
2023-01-10T18:01:53.389Z,12.23
2023-01-10T18:04:21.675Z,12.19
2023-01-10T18:06:52.239Z,12.13
2023-01-10T18:09:20.293Z,12.10
2023-01-10T18:11:48.582Z,12.00
2023-01-10T18:14:33.989Z,11.96
2023-01-10T18:17:02.354Z,11.89
2023-01-10T18:19:30.825Z,11.85
2023-01-10T18:22:00.134Z,11.84
2023-01-10T18:24:28.554Z,11.78
2023-01-10T18:26:56.522Z,11.73
2023-01-10T18:29:24.733Z,11.64
2023-01-10T18:31:52.936Z,11.57
2023-01-10T18:34:23.864Z,11.50
2023-01-10T18:36:53.261Z,11.58
2023-01-10T18:39:22.927Z,11.57
2023-01-10T18:41:51.263Z,11.52
2023-01-10T18:44:19.959Z,11.55
2023-01-10T18:46:47.923Z,11.46
2023-01-10T18:49:17.352Z,11.48
2023-01-10T18:51:46.175Z,11.39
2023-01-10T18:54:14.666Z,11.46
2023-01-10T18:56:44.167Z,11.42
2023-01-10T18:59:12.549Z,11.40
2023-01-10T19:01:40.568Z,11.46
2023-01-10T19:04:09.063Z,11.42
2023-01-10T19:06:37.484Z,11.35
2023-01-10T19:09:06.144Z,11.30
2023-01-10T19:11:34.134Z,11.32
2023-01-10T19:14:03.833Z,11.27
2023-01-10T19:16:32.937Z,11.30
2023-01-10T19:19:03.176Z,11.27
2023-01-10T19:21:33.131Z,11.23
2023-01-10T19:24:03.716Z,11.20
2023-01-10T19:26:32.251Z,11.27
2023-01-10T19:29:00.283Z,11.21
2023-01-10T19:31:30.785Z,11.26
2023-01-10T19:34:00.166Z,11.18
2023-01-10T19:36:34.609Z,11.22
2023-01-10T19:39:05.176Z,11.18
2023-01-10T19:41:34.674Z,11.12
2023-01-10T19:44:04.906Z,11.11
2023-01-10T19:46:36.921Z,11.16
2023-01-10T19:49:07.922Z,11.14
2023-01-10T19:51:37.019Z,11.11
2023-01-10T19:54:06.475Z,11.05
2023-01-10T19:56:35.029Z,11.03
2023-01-10T19:59:03.134Z,11.02
2023-01-10T20:01:34.145Z,10.94
2023-01-10T20:04:06.442Z,10.91
2023-01-10T20:06:38.558Z,11.00
2023-01-10T20:09:07.829Z,10.99
2023-01-10T20:11:38.177Z,10.95
2023-01-10T20:14:06.788Z,11.05
2023-01-10T20:16:36.092Z,10.99
2023-01-10T20:19:05.517Z,10.99
2023-01-10T20:21:34.197Z,10.99
2023-01-10T20:24:02.207Z,10.81
2023-01-10T20:26:31.092Z,10.90
2023-01-10T20:29:02.670Z,10.96
2023-01-10T20:31:31.281Z,10.83
2023-01-10T20:34:00.965Z,10.85
2023-01-10T20:36:31.692Z,10.85
2023-01-10T20:38:59.886Z,10.85
2023-01-10T20:41:28.987Z,10.78
2023-01-10T20:43:57.988Z,10.84
2023-01-10T20:46:28.704Z,10.83
2023-01-10T20:48:57.788Z,10.83
2023-01-10T20:51:30.249Z,10.80
2023-01-10T20:53:59.523Z,10.85
2023-01-10T20:56:29.629Z,10.94
2023-01-10T20:58:58.594Z,10.91
2023-01-10T21:01:34.464Z,10.88
2023-01-10T21:04:03.278Z,10.88
2023-01-10T21:06:33.526Z,10.92
2023-01-10T21:09:01.729Z,10.96
2023-01-10T21:11:29.808Z,10.99
2023-01-10T21:13:58.228Z,11.03
2023-01-10T21:16:26.504Z,11.00
2023-01-10T21:18:54.830Z,11.04
2023-01-10T21:21:23.605Z,11.02
2023-01-10T21:23:54.671Z,11.03
2023-01-10T21:26:23.660Z,10.94
2023-01-10T21:28:51.778Z,11.01
2023-01-10T21:31:21.750Z,10.91
2023-01-10T21:33:50.614Z,10.95
2023-01-10T21:36:18.977Z,10.85
2023-01-10T21:38:47.875Z,10.86
2023-01-10T21:41:40.040Z,10.90
2023-01-10T21:44:09.113Z,10.82
2023-01-10T21:46:37.669Z,10.88
2023-01-10T21:49:06.222Z,10.85
2023-01-10T21:51:34.432Z,10.70
2023-01-10T21:54:02.830Z,10.88
2023-01-10T21:56:32.231Z,10.85
2023-01-10T21:59:00.287Z,10.77
2023-01-10T22:01:28.673Z,10.89
2023-01-10T22:03:57.162Z,10.90
2023-01-10T22:06:25.219Z,10.92
2023-01-10T22:08:54.449Z,10.75
2023-01-10T22:11:22.710Z,10.83
2023-01-10T22:13:54.226Z,10.91
2023-01-10T22:16:22.519Z,10.82
2023-01-10T22:18:50.783Z,10.99
2023-01-10T22:21:19.714Z,10.94
2023-01-10T22:23:48.090Z,11.04
2023-01-10T22:26:17.394Z,11.09
2023-01-10T22:28:45.446Z,11.12
2023-01-10T22:31:15.005Z,11.10
2023-01-10T22:33:43.176Z,11.12
2023-01-10T22:36:14.653Z,11.13
2023-01-10T22:38:43.152Z,11.06
2023-01-10T22:41:15.849Z,11.11
2023-01-10T22:43:44.772Z,11.01
2023-01-10T22:46:15.624Z,11.05
2023-01-10T22:48:45.622Z,11.05
2023-01-10T22:51:14.315Z,11.03
2023-01-10T22:53:42.489Z,10.98
2023-01-10T22:56:12.219Z,10.96
2023-01-10T22:58:42.309Z,10.96
2023-01-10T23:01:10.451Z,11.04
2023-01-10T23:03:39.274Z,11.07
2023-01-10T23:06:09.351Z,11.06
2023-01-10T23:08:39.204Z,11.14
2023-01-10T23:11:08.519Z,11.13
2023-01-10T23:13:36.705Z,11.10
2023-01-10T23:16:07.128Z,11.19
2023-01-10T23:18:35.544Z,11.20
2023-01-10T23:21:03.727Z,11.31
2023-01-10T23:23:33.021Z,11.17
2023-01-10T23:26:02.732Z,11.25
2023-01-10T23:28:31.847Z,11.34
2023-01-10T23:31:00.233Z,11.32
2023-01-10T23:33:28.833Z,11.32
2023-01-10T23:35:57.107Z,11.35
2023-01-10T23:38:25.486Z,11.23
2023-01-10T23:40:55.373Z,11.27
2023-01-10T23:43:23.647Z,11.20
2023-01-10T23:45:52.015Z,11.18
2023-01-10T23:48:20.776Z,11.19
2023-01-10T23:50:49.642Z,11.18
2023-01-10T23:53:18.346Z,11.23
2023-01-10T23:55:46.699Z,11.21
2023-01-10T23:58:17.047Z,11.22
